ダラス/フォートワース の空港の天気 - METARとTAF

ダラス・フォートワース国際空港 ( KDFW / DFW ) - アメリカ テキサス州ダラス & フォートワース
飛行場実況気象(Metar)
観測時間02/17 16:53 CST (02/17 22:53 UTC)
風向・風速北北東 5m/s
視程10km以上
天気現象
全天の8割程度の雲 雲底高度 7620m
全天の8割程度の雲 雲底高度 9140m
気温10.6℃
湿度44%
気圧1014.3hPa
METARKDFW 172253Z 03010KT 10SM BKN250 BKN300 11/M01 A2996 RMK AO2 SLP143 T01061011 $
過去の天気等 Google飛行場航空写真 Wunderground天気予報

過去48時間のMETAR

飛行場予報(TAF)
発表時間: 2/17 15:07 CST (2/17 21:07 UTC)
予報対象時間: 17日15時 CST ~ 18日18時 CST
風向・風速北 4m/s
視程10km以上
全天の8割程度の雲 雲底高度 6710m
18日9時 CST から
風向・風速北北東 5m/s
視程10km以上
全天の4割程度の雲 雲底高度 3050m
全天の8割程度の雲 雲底高度 6710m
18日15時 CST から
風向・風速東 5m/s
視程10km以上
全天の4割程度の雲 雲底高度 3050m
全天の8割程度の雲 雲底高度 6710m
KDFW 172107Z 1721/1824 01008KT P6SM BKN220
FM181500 03010KT P6SM SCT100 BKN220
FM182100 08010KT P6SM SCT100 BKN220